Latest Weather Observations for Lucas Heights

IDN60801

Issued at 12:05 pm EST Tuesday 29 July 2014 (issued every 30 minutes, with the page automatically refreshed every 10 minutes)

About weather observations | Map of weather stations | Latest weather observations for NSW | Other Formats
Station Details ID: 066023 Name: LUCAS HEIGHTS AWS Lat: -34.05 Lon: 150.98 Height: 140.0 m
Data from the previous 72 hours. | See also: Recent months for locations in New South Wales
Date/Time
EST
Temp
°C
App
Temp
°C
Dew
Point
Rel
Hum
%
Delta-T
°C
Wind Press
QNH
hPa
Press
MSL
hPa
Rain
since 9 am
mm
Dir
 
Spd
km/h
Gust
km/h
Spd
kts
Gust
kts
29/11:45am 17.4 11.2 4.4 42 6.2 NNW 26 41 14 22 1016.0 - 0.0
29/11:30am 17.3 11.2 4.8 43 6.0 NNW 26 41 14 22 1016.3 - 0.0
29/11:15am 16.6 11.8 5.4 47 5.4 NNW 20 39 11 21 1016.7 - 0.0
29/11:00am 16.4 12.7 6.4 51 4.9 NNW 15 26 8 14 1017.1 - 0.0
29/10:45am 14.9 11.1 6.0 55 4.3 NNW 15 22 8 12 1017.3 - 0.0
29/10:30am 14.2 10.4 5.9 57 4.0 N 15 26 8 14 1017.5 - 0.0
29/10:15am 13.8 10.4 6.0 59 3.7 N 13 22 7 12 1017.8 - 0.0
29/10:00am 13.6 9.7 5.5 58 3.8 NNW 15 22 8 12 1018.0 - 0.0
29/09:45am 13.3 9.4 5.4 59 3.7 NNW 15 26 8 14 1018.1 - 0.0
29/09:30am 12.7 7.8 5.3 60 3.5 NNW 20 32 11 17 1018.1 - 0.0
29/09:15am 12.2 7.3 5.0 61 3.3 NNW 20 30 11 16 1018.2 - 0.0
29/09:00am 11.7 6.0 4.9 63 3.1 NNW 24 33 13 18 1018.2 - 0.0
29/08:45am 11.3 5.9 4.6 63 3.1 NW 22 26 12 14 1018.4 - 0.0
29/08:30am 11.1 5.7 4.6 64 3.0 NW 22 30 12 16 1018.2 - 0.0
29/08:15am 10.8 5.8 4.4 64 2.9 WNW 20 26 11 14 1018.1 - 0.0
29/08:00am 10.9 5.9 4.4 64 2.9 WNW 20 26 11 14 1018.2 - 0.0
29/07:45am 10.8 5.8 4.6 65 2.8 WNW 20 26 11 14 1018.2 - 0.0
29/07:30am 10.3 4.9 4.5 67 2.6 WNW 22 26 12 14 1018.3 - 0.0
29/07:15am 10.1 4.3 4.5 68 2.5 W 24 28 13 15 1018.1 - 0.0
29/07:00am 10.0 5.0 4.4 68 2.5 W 20 26 11 14 1018.1 - 0.0
29/06:45am 10.1 5.3 4.6 68 2.5 WNW 19 22 10 12 1018.1 - 0.0
29/06:30am 10.0 5.0 4.6 69 2.4 WNW 20 26 11 14 1018.0 - 0.0
29/06:15am 10.0 5.2 4.6 69 2.4 W 19 26 10 14 1017.9 - 0.0
29/06:00am 10.0 5.2 4.7 69 2.4 WNW 19 22 10 12 1017.8 - 0.0
29/05:45am 9.9 4.9 4.5 69 2.4 WNW 20 26 11 14 1017.7 - 0.0
29/05:30am 10.2 6.1 4.3 67 2.6 WNW 15 24 8 13 1017.6 - 0.0
29/05:15am 10.9 6.1 4.5 64 2.9 WNW 19 22 10 12 1017.6 - 0.0
29/05:00am 11.0 5.6 4.7 65 2.9 WNW 22 26 12 14 1017.5 - 0.0
29/04:45am 11.1 5.0 4.8 65 2.9 WNW 26 30 14 16 1017.5 - 0.0
29/04:30am 11.1 5.0 4.9 65 2.8 WNW 26 32 14 17 1017.5 - 0.0
29/04:15am 11.0 5.3 5.0 66 2.8 WNW 24 30 13 16 1017.6 - 0.0
29/04:00am 10.7 5.0 5.1 68 2.6 WNW 24 26 13 14 1017.6 - 0.0
29/03:45am 10.4 6.0 4.8 68 2.5 WNW 17 22 9 12 1017.5 - 0.0
29/03:30am 10.5 6.1 4.9 68 2.6 NW 17 19 9 10 1017.6 - 0.0
29/03:15am 10.5 6.1 5.0 69 2.5 NW 17 22 9 12 1017.5 - 0.0
29/03:00am 10.3 6.3 4.9 69 2.5 NW 15 22 8 12 1017.6 - 0.0
29/02:45am 10.2 5.4 4.7 68 2.5 NNW 19 22 10 12 1017.6 - 0.0
29/02:30am 10.5 6.1 4.8 68 2.6 NNW 17 22 9 12 1017.6 - 0.0
29/02:15am 10.7 5.9 4.9 67 2.6 NW 19 22 10 12 1017.7 - 0.0
29/02:00am 10.7 6.7 4.7 66 2.7 NNW 15 22 8 12 1017.9 - 0.0
29/01:45am 11.0 7.4 4.8 65 2.8 NW 13 19 7 10 1018.0 - 0.0
29/01:30am 11.3 6.5 4.9 65 2.9 WNW 19 30 10 16 1018.0 - 0.0
29/01:15am 11.7 4.9 5.0 63 3.1 WNW 30 41 16 22 1017.7 - 0.0
29/01:00am 11.5 4.7 5.1 65 3.0 WNW 30 37 16 20 1017.8 - 0.0
29/12:45am 11.5 5.1 5.0 64 3.0 WNW 28 35 15 19 1017.9 - 0.0
29/12:30am 11.7 5.3 5.1 64 3.0 WNW 28 30 15 16 1018.1 - 0.0
29/12:15am 11.5 5.4 4.7 63 3.1 NW 26 30 14 16 1018.3 - 0.0
29/12:00am 11.8 6.5 4.9 62 3.2 NW 22 30 12 16 1018.7 - 0.0
 
Date/Time
EST
Temp
°C
App
Temp
°C
Dew
Point
Rel
Hum
%
Delta-T
°C
Wind Press
QNH
hPa
Press
MSL
hPa
Rain
since 9 am
mm
Dir
 
Spd
km/h
Gust
km/h
Spd
kts
Gust
kts
28/11:45pm 12.0 7.0 4.8 61 3.3 NW 20 26 11 14 1018.9 - 0.0
28/11:30pm 12.3 7.3 4.7 60 3.5 NW 20 26 11 14 1018.9 - 0.0
28/11:15pm 12.6 7.3 4.8 59 3.6 NW 22 28 12 15 1019.0 - 0.0
28/11:00pm 12.7 7.0 4.8 58 3.7 NW 24 30 13 16 1019.1 - 0.0
28/10:45pm 12.7 7.0 4.9 59 3.6 NW 24 26 13 14 1019.1 - 0.0
28/10:30pm 12.8 7.5 4.9 58 3.7 WNW 22 26 12 14 1019.3 - 0.0
28/10:15pm 12.9 8.1 4.8 58 3.8 WNW 19 20 10 11 1019.5 - 0.0
28/10:00pm 12.4 8.7 4.5 58 3.6 W 13 20 7 11 1019.6 - 0.0
28/09:45pm 13.2 9.1 4.4 55 4.1 W 15 17 8 9 1019.5 - 0.0
28/09:30pm 13.4 9.0 4.5 55 4.1 W 17 19 9 10 1019.6 - 0.0
28/09:15pm 13.7 9.7 4.7 54 4.2 W 15 19 8 10 1019.5 - 0.0
28/09:00pm 14.0 10.0 4.8 54 4.3 W 15 17 8 9 1019.4 - 0.0
28/08:45pm 13.7 9.4 5.2 56 4.0 W 17 22 9 12 1019.5 - 0.0
28/08:30pm 13.1 8.8 5.2 58 3.7 W 17 19 9 10 1019.5 - 0.0
28/08:15pm 12.8 8.8 5.0 59 3.6 W 15 19 8 10 1019.6 - 0.0
28/08:00pm 13.1 9.5 4.9 57 3.8 W 13 19 7 10 1019.5 - 0.0
28/07:45pm 13.8 9.8 5.0 55 4.1 W 15 19 8 10 1019.4 - 0.0
28/07:30pm 14.1 9.8 5.1 54 4.2 W 17 20 9 11 1019.3 - 0.0
28/07:15pm 14.2 10.2 5.1 54 4.3 W 15 22 8 12 1019.3 - 0.0
28/07:00pm 14.1 10.2 5.2 55 4.2 WNW 15 19 8 10 1019.2 - 0.0
28/06:45pm 14.0 10.4 5.2 55 4.2 WNW 13 17 7 9 1019.3 - 0.0
28/06:30pm 13.6 10.0 5.1 56 4.0 WNW 13 15 7 8 1019.2 - 0.0
28/06:15pm 13.8 10.6 5.1 55 4.1 WNW 11 15 6 8 1018.9 - 0.0
28/06:00pm 14.3 11.5 5.2 54 4.3 WNW 9 15 5 8 1018.9 - 0.0
28/05:45pm 14.3 11.2 5.4 55 4.2 NW 11 19 6 10 1018.8 - 0.0
28/05:30pm 14.1 10.6 5.5 56 4.1 NW 13 15 7 8 1018.7 - 0.0
28/05:15pm 14.1 11.0 5.5 56 4.1 NW 11 15 6 8 1018.6 - 0.0
28/05:00pm 14.4 11.7 5.6 55 4.2 NW 9 13 5 7 1018.4 - 0.0
28/04:45pm 15.0 12.7 5.5 53 4.5 NW 7 11 4 6 1018.3 - 0.0
28/04:30pm 15.3 12.2 5.5 52 4.7 NW 11 15 6 8 1018.3 - 0.0
28/04:15pm 15.6 11.7 5.4 50 4.9 WNW 15 22 8 12 1018.3 - 0.0
28/04:00pm 15.8 11.6 5.5 50 5.0 WNW 17 24 9 13 1018.2 - 0.0
28/03:45pm 16.0 11.8 5.6 50 5.0 NW 17 22 9 12 1018.2 - 0.0
28/03:30pm 16.6 12.7 5.3 47 5.4 WNW 15 24 8 13 1018.1 - 0.0
28/03:15pm 16.7 12.0 5.0 46 5.6 W 19 33 10 18 1018.1 - 0.0
28/03:00pm 16.7 11.3 4.7 45 5.7 W 22 30 12 16 1018.1 - 0.0
28/02:45pm 16.7 11.3 4.6 44 5.8 W 22 32 12 17 1018.1 - 0.0
28/02:30pm 16.8 11.8 4.5 44 5.8 W 20 33 11 18 1018.1 - 0.0
28/02:15pm 16.9 10.7 4.3 43 6.0 W 26 41 14 22 1018.0 - 0.0
28/02:00pm 17.3 11.9 4.7 43 6.0 W 22 35 12 19 1018.1 - 0.0
28/01:45pm 17.3 11.9 4.4 42 6.1 WSW 22 35 12 19 1018.2 - 0.0
28/01:30pm 17.4 12.0 4.3 42 6.2 WSW 22 37 12 20 1018.3 - 0.0
28/01:15pm 17.6 11.1 4.5 42 6.3 WSW 28 41 15 22 1018.6 - 0.0
28/01:00pm 17.0 12.1 5.1 45 5.7 W 20 33 11 18 1018.9 - 0.0
28/12:45pm 16.9 11.2 4.9 45 5.8 W 24 39 13 21 1019.1 - 0.0
28/12:30pm 16.3 11.5 5.6 49 5.2 WSW 20 37 11 20 1019.5 - 0.0
28/12:15pm 15.7 10.9 5.5 50 4.9 WSW 20 33 11 18 1019.8 - 0.0
28/12:00pm 15.4 10.5 5.3 51 4.8 WSW 20 32 11 17 1020.0 - 0.0
28/11:45am 15.6 10.9 5.3 50 4.9 WSW 19 32 10 17 1020.1 - 0.0
28/11:30am 15.2 9.5 5.0 50 4.8 WSW 24 41 13 22 1020.3 - 0.0
28/11:15am 15.0 10.1 5.1 51 4.7 WSW 20 32 11 17 1020.6 - 0.0
28/11:00am 14.7 9.4 5.0 52 4.6 WSW 22 30 12 16 1021.0 - 0.0
28/10:45am 14.7 10.4 5.3 53 4.5 WSW 17 26 9 14 1021.1 - 0.0
28/10:30am 14.0 9.1 5.0 54 4.2 W 20 30 11 16 1021.2 - 0.0
28/10:15am 13.7 9.4 5.4 57 3.9 W 17 24 9 13 1021.2 - 0.0
28/10:00am 13.1 8.8 5.4 59 3.6 W 17 26 9 14 1021.3 - 0.0
28/09:45am 12.7 8.0 5.2 60 3.5 W 19 28 10 15 1021.2 - 0.0
28/09:30am 12.4 7.8 5.4 62 3.3 W 19 26 10 14 1021.2 - 0.0
28/09:15am 11.6 7.7 5.5 66 2.8 W 15 22 8 12 1021.2 - 0.0
28/09:00am 10.4 5.2 5.3 70 2.3 W 22 33 12 18 1021.3 - 0.0
28/08:45am 9.0 3.3 4.7 74 1.9 W 24 33 13 18 1021.0 - 0.0
28/08:30am 8.3 2.4 4.1 75 1.8 W 24 33 13 18 1021.1 - 0.0
28/08:15am 8.2 3.1 4.0 75 1.8 W 20 26 11 14 1021.3 - 0.0
28/08:00am 7.9 3.7 3.9 76 1.7 WNW 15 22 8 12 1021.4 - 0.0
28/07:45am 7.7 3.5 3.6 75 1.8 W 15 19 8 10 1021.6 - 0.0
28/07:30am 7.7 3.1 3.6 75 1.8 W 17 20 9 11 1021.5 - 0.0
28/07:15am 7.5 2.5 3.4 75 1.8 W 19 20 10 11 1021.7 - 0.0
28/07:00am 7.5 3.2 3.0 73 1.9 W 15 19 8 10 1021.6 - 0.0
28/06:45am 8.2 4.2 3.1 70 2.2 WNW 13 19 7 10 1021.6 - 0.0
28/06:30am 9.3 5.8 3.3 66 2.6 WNW 11 22 6 12 1021.1 - 0.0
28/06:15am 10.2 5.1 3.9 65 2.8 W 20 30 11 16 1020.7 - 0.0
28/06:00am 10.5 4.6 4.1 64 2.9 W 24 30 13 16 1020.6 - 0.0
28/05:45am 10.4 4.6 4.2 65 2.8 W 24 33 13 18 1020.6 - 0.0
28/05:30am 10.4 4.2 4.3 66 2.7 W 26 33 14 18 1020.3 - 0.0
28/05:15am 10.0 3.8 4.3 67 2.6 W 26 33 14 18 1020.3 - 0.0
28/05:00am 9.7 5.5 4.0 67 2.5 W 15 26 8 14 1020.5 - 0.0
28/04:45am 10.0 5.5 4.1 67 2.6 W 17 30 9 16 1020.6 - 0.0
28/04:30am 10.0 4.5 4.1 67 2.6 W 22 28 12 15 1020.6 - 0.0
28/04:15am 9.8 3.9 4.0 67 2.6 W 24 30 13 16 1020.7 - 0.0
28/04:00am 9.9 4.8 3.9 66 2.7 W 20 26 11 14 1020.7 - 0.0
28/03:45am 10.2 5.3 3.9 65 2.8 W 19 26 10 14 1020.9 - 0.0
28/03:30am 10.4 5.3 3.9 64 2.9 W 20 28 11 15 1020.9 - 0.0
28/03:15am 10.6 5.5 4.1 64 2.9 W 20 30 11 16 1021.1 - 0.0
28/03:00am 10.5 4.2 4.0 64 2.9 WSW 26 37 14 20 1021.6 - 0.0
28/02:45am 10.2 3.2 4.0 65 2.8 SW 30 41 16 22 1021.8 - 0.0
28/02:30am 10.2 3.9 4.0 65 2.8 SW 26 35 14 19 1021.8 - 0.0
28/02:15am 10.2 4.3 4.0 65 2.8 SW 24 35 13 19 1021.8 - 0.0
28/02:00am 10.4 4.9 3.9 64 2.9 SW 22 30 12 16 1021.7 - 0.0
28/01:45am 10.5 5.4 4.0 64 2.9 SSW 20 28 11 15 1021.6 - 0.0
28/01:30am 10.4 4.9 4.1 65 2.8 SW 22 28 12 15 1021.8 - 0.0
28/01:15am 10.3 4.1 4.2 66 2.7 SW 26 32 14 17 1022.0 - 0.0
28/01:00am 10.3 4.5 4.3 66 2.7 SW 24 30 13 16 1022.1 - 0.0
28/12:45am 10.0 3.8 4.3 67 2.6 SW 26 30 14 16 1022.1 - 0.0
28/12:30am 9.6 3.0 4.3 69 2.4 SW 28 32 15 17 1022.0 - 0.0
28/12:15am 9.5 3.6 3.7 67 2.5 SW 24 26 13 14 1021.8 - 0.0
28/12:00am 10.1 4.6 4.0 66 2.7 WSW 22 26 12 14 1021.9 - 0.0
 
Date/Time
EST
Temp
°C
App
Temp
°C
Dew
Point
Rel
Hum
%
Delta-T
°C
Wind Press
QNH
hPa
Press
MSL
hPa
Rain
since 9 am
mm
Dir
 
Spd
km/h
Gust
km/h
Spd
kts
Gust
kts
27/11:45pm 10.9 6.9 4.9 66 2.7 W 15 19 8 10 1021.8 - 0.0
27/11:30pm 11.1 6.7 5.0 66 2.8 W 17 19 9 10 1022.1 - 0.0
27/11:15pm 10.8 6.4 4.7 66 2.8 W 17 20 9 11 1022.3 - 0.0
27/11:00pm 10.4 5.6 4.8 68 2.5 W 19 20 10 11 1022.4 - 0.0
27/10:45pm 9.4 5.0 4.9 73 2.0 W 17 19 9 10 1022.6 - 0.0
27/10:30pm 8.4 3.8 3.6 72 2.1 W 17 19 9 10 1022.5 - 0.0
27/10:15pm 10.1 5.8 5.4 72 2.2 WSW 17 19 9 10 1022.6 - 0.0
27/10:00pm 8.3 4.2 4.6 77 1.6 WSW 15 17 8 9 1022.9 - 0.0
27/09:45pm 8.0 4.1 3.5 73 1.9 WSW 13 15 7 8 1023.0 - 0.0
27/09:30pm 9.2 5.4 4.0 70 2.3 WSW 13 15 7 8 1023.2 - 0.0
27/09:15pm 9.8 6.0 4.0 67 2.6 WSW 13 17 7 9 1023.4 - 0.0
27/09:00pm 10.8 7.5 4.8 66 2.7 SW 11 13 6 7 1023.5 - 0.0
27/08:45pm 10.5 6.9 5.0 69 2.5 SW 13 15 7 8 1023.7 - 0.0
27/08:30pm 10.0 6.3 4.7 69 2.4 SW 13 15 7 8 1023.7 - 0.0
27/08:15pm 10.0 7.1 4.7 69 2.4 SW 9 15 5 8 1023.7 - 0.0
27/08:00pm 10.3 7.8 5.0 69 2.4 SW 7 11 4 6 1023.8 - 0.0
27/07:45pm 10.3 8.0 5.0 69 2.4 SW 6 9 3 5 1023.8 - 0.0
27/07:30pm 10.7 8.3 5.3 69 2.5 SW 7 13 4 7 1023.8 - 0.0
27/07:15pm 11.1 7.7 6.1 71 2.4 SSW 13 17 7 9 1023.9 - 0.0
27/07:00pm 10.9 7.5 6.1 72 2.3 SSW 13 19 7 10 1023.5 - 0.0
27/06:45pm 11.3 8.3 6.2 71 2.4 S 11 19 6 10 1023.2 - 0.0
27/06:30pm 11.7 9.2 6.4 70 2.5 SE 9 9 5 5 1022.9 - 0.0
27/06:15pm 12.0 9.5 6.4 68 2.7 SE 9 9 5 5 1022.8 - 0.0
27/06:00pm 12.3 10.1 6.2 66 2.9 SSE 7 9 4 5 1022.9 - 0.0
27/05:45pm 12.9 10.9 6.2 64 3.2 ESE 6 9 3 5 1022.7 - 0.0
27/05:30pm 13.7 11.5 6.4 61 3.5 ESE 7 11 4 6 1022.3 - 0.0
27/05:15pm 14.5 12.0 6.4 58 3.9 SE 9 13 5 7 1022.0 - 0.0
27/05:00pm 15.1 12.2 6.3 55 4.3 ESE 11 13 6 7 1021.9 - 0.0
27/04:45pm 15.6 12.7 6.5 54 4.5 ESE 11 15 6 8 1021.8 - 0.0
27/04:30pm 15.9 13.0 6.4 53 4.7 ESE 11 15 6 8 1021.7 - 0.0
27/04:15pm 16.3 13.8 6.4 52 4.9 ESE 9 15 5 8 1021.7 - 0.0
27/04:00pm 16.8 14.3 6.5 50 5.1 ESE 9 13 5 7 1021.6 - 0.0
27/03:45pm 17.5 15.0 6.4 48 5.5 SE 9 15 5 8 1021.6 - 0.0
27/03:30pm 19.0 16.8 6.0 42 6.5 S 7 15 4 8 1021.5 - 0.0
27/03:15pm 18.7 16.4 5.6 42 6.4 WNW 7 13 4 7 1021.5 - 0.0
27/03:00pm 18.4 15.2 5.3 42 6.4 WNW 11 19 6 10 1021.6 - 0.0
27/02:45pm 18.3 14.8 5.3 42 6.3 W 13 22 7 12 1021.6 - 0.0
27/02:30pm 18.3 14.7 5.1 41 6.4 W 13 20 7 11 1021.7 - 0.0
27/02:15pm 18.3 15.1 5.1 41 6.4 WSW 11 20 6 11 1021.9 - 0.0
27/02:00pm 18.2 14.6 4.9 41 6.4 W 13 20 7 11 1021.9 - 0.0
27/01:45pm 18.2 14.6 5.1 42 6.4 WSW 13 28 7 15 1021.9 - 0.0
27/01:30pm 18.3 15.6 5.5 43 6.3 SSW 9 20 5 11 1022.0 - 0.0
27/01:15pm 17.8 14.3 5.3 43 6.1 SSW 13 20 7 11 1022.1 - 0.0
27/01:00pm 17.5 13.6 5.3 44 5.9 SSW 15 22 8 12 1022.3 - 0.0
27/12:45pm 17.8 14.0 5.6 44 6.0 SSW 15 39 8 21 1022.6 - 0.0
27/12:30pm 17.8 14.1 6.1 46 5.8 SW 15 35 8 19 1022.9 - 0.0
27/12:15pm 17.4 14.0 6.1 47 5.6 SSW 13 24 7 13 1023.2 - 0.0
27/12:00pm 17.3 13.6 6.2 48 5.5 SSW 15 22 8 12 1023.5 - 0.0
27/11:45am 17.2 13.6 6.6 49 5.3 SSW 15 26 8 14 1023.9 - 0.0
27/11:30am 16.8 12.8 6.7 51 5.0 SSW 17 24 9 13 1024.3 - 0.0
27/11:15am 16.1 12.1 6.7 53 4.6 SW 17 26 9 14 1024.5 - 0.0
27/11:00am 15.7 11.7 6.6 54 4.5 SW 17 28 9 15 1024.6 - 0.0
27/10:45am 15.3 11.3 6.6 56 4.3 WSW 17 24 9 13 1024.8 - 0.0
27/10:30am 14.8 10.4 6.4 57 4.1 WSW 19 28 10 15 1024.9 - 0.0
27/10:15am 14.4 9.4 6.4 58 3.9 SW 22 32 12 17 1025.2 - 0.0
27/10:00am 14.2 9.8 6.4 59 3.8 SW 19 30 10 16 1025.1 - 0.0
27/09:45am 13.7 9.0 6.2 60 3.6 SW 20 30 11 16 1025.0 - 0.0
27/09:30am 13.5 9.4 6.3 61 3.5 SSW 17 28 9 15 1024.7 - 0.0
27/09:15am 12.9 8.2 6.2 64 3.2 SSW 20 32 11 17 1024.8 - 0.0
27/09:00am 12.4 7.3 6.0 65 3.0 SW 22 35 12 19 1024.7 - 0.2
27/08:45am 12.0 6.1 5.8 66 2.9 SW 26 37 14 20 1024.6 - 0.2
27/08:30am 11.7 5.8 5.7 66 2.8 SW 26 37 14 20 1024.6 - 0.2
27/08:15am 11.3 5.4 5.6 68 2.7 SW 26 37 14 20 1024.4 - 0.2
27/08:00am 11.0 5.4 5.6 69 2.5 SW 24 37 13 20 1024.3 - 0.2
27/07:45am 10.6 6.0 5.4 70 2.4 SW 19 30 10 16 1024.2 - 0.2
27/07:30am 10.4 4.8 5.2 70 2.4 SW 24 35 13 19 1024.2 - 0.2
27/07:15am 10.5 3.4 5.3 70 2.4 SW 32 41 17 22 1024.1 - 0.2
27/07:00am 10.4 3.6 5.3 70 2.3 SW 30 41 16 22 1023.9 - 0.2
27/06:45am 10.3 3.6 5.4 71 2.3 SW 30 41 16 22 1023.8 - 0.2
27/06:30am 10.2 4.6 5.4 72 2.2 SW 24 37 13 20 1023.5 - 0.2
27/06:15am 10.2 4.2 5.4 72 2.2 SW 26 37 14 20 1023.2 - 0.2
27/06:00am 10.1 4.5 5.4 72 2.2 SW 24 32 13 17 1023.1 - 0.2
27/05:45am 10.1 4.5 5.4 72 2.2 SW 24 37 13 20 1023.0 - 0.2
27/05:30am 10.1 4.9 5.3 72 2.2 SW 22 33 12 18 1022.9 - 0.2
27/05:15am 10.2 5.0 5.4 72 2.2 SW 22 30 12 16 1022.8 - 0.2
27/05:00am 10.3 4.7 5.5 72 2.2 SW 24 33 13 18 1022.9 - 0.2
27/04:45am 10.2 4.6 5.4 72 2.2 SW 24 33 13 18 1022.9 - 0.2
27/04:30am 10.3 4.7 5.4 71 2.3 SW 24 33 13 18 1022.9 - 0.2
27/04:15am 10.5 3.8 5.6 71 2.3 SW 30 41 16 22 1022.8 - 0.2
27/04:00am 10.4 3.7 5.5 71 2.3 SW 30 39 16 21 1022.9 - 0.2
27/03:45am 10.5 3.4 5.6 71 2.3 SW 32 39 17 21 1022.9 - 0.2
27/03:30am 10.5 3.8 5.5 71 2.3 SW 30 37 16 20 1023.0 - 0.2
27/03:15am 10.5 4.9 5.5 71 2.3 SW 24 33 13 18 1023.1 - 0.2
27/03:00am 10.6 5.0 5.5 71 2.4 SW 24 35 13 19 1023.2 - 0.2
27/02:45am 10.8 4.5 5.6 70 2.4 SW 28 37 15 20 1023.2 - 0.2
27/02:30am 10.8 4.1 5.6 70 2.4 SW 30 41 16 22 1023.2 - 0.2
27/02:15am 10.8 4.5 5.6 70 2.4 SW 28 37 15 20 1023.2 - 0.2
27/02:00am 10.8 4.8 5.5 70 2.5 SW 26 41 14 22 1023.2 - 0.2
27/01:45am 11.1 4.8 5.6 69 2.6 SW 28 39 15 21 1023.3 - 0.2
27/01:30am 11.1 4.4 5.6 69 2.6 SW 30 41 16 22 1023.2 - 0.2
27/01:15am 11.1 4.8 5.7 69 2.5 SW 28 37 15 20 1023.1 - 0.2
27/01:00am 11.1 4.8 5.7 69 2.5 SW 28 37 15 20 1023.1 - 0.2
27/12:45am 11.0 5.1 5.6 69 2.5 SW 26 37 14 20 1023.2 - 0.2
27/12:30am 11.0 4.7 5.6 69 2.5 SW 28 33 15 18 1023.3 - 0.2
27/12:15am 11.0 5.0 5.4 68 2.6 SW 26 33 14 18 1023.4 - 0.2
27/12:00am 11.1 5.2 5.6 69 2.6 SW 26 33 14 18 1023.5 - 0.2
 
Date/Time
EST
Temp
°C
App
Temp
°C
Dew
Point
Rel
Hum
%
Delta-T
°C
Wind Press
QNH
hPa
Press
MSL
hPa
Rain
since 9 am
mm
Dir
 
Spd
km/h
Gust
km/h
Spd
kts
Gust
kts
26/11:45pm 10.9 4.9 5.3 68 2.6 SW 26 32 14 17 1023.5 - 0.2
26/11:30pm 10.9 5.2 5.1 67 2.7 SW 24 30 13 16 1023.5 - 0.2
26/11:15pm 11.4 5.4 5.2 65 2.9 SW 26 32 14 17 1023.5 - 0.2
26/11:00pm 11.5 5.1 5.4 66 2.8 WSW 28 32 15 17 1023.5 - 0.2
26/10:45pm 11.1 5.5 5.4 68 2.6 SW 24 28 13 15 1023.6 - 0.2
26/10:30pm 10.9 5.6 5.2 68 2.6 SW 22 26 12 14 1023.5 - 0.2
26/10:15pm 11.0 6.1 5.0 66 2.8 SW 20 22 11 12 1023.5 - 0.2
26/10:00pm 11.5 6.2 5.2 65 2.9 SW 22 26 12 14 1023.6 - 0.2
26/09:45pm 11.8 5.8 5.2 64 3.1 SW 26 32 14 17 1023.5 - 0.2
26/09:30pm 12.3 5.9 5.4 63 3.2 WSW 28 33 15 18 1023.4 - 0.2
26/09:15pm 12.4 7.2 5.5 63 3.2 WSW 22 32 12 17 1023.5 - 0.2
26/09:00pm 12.2 7.4 5.6 64 3.1 SW 20 26 11 14 1023.5 - 0.2
26/08:45pm 11.9 7.1 5.6 65 2.9 SW 20 22 11 12 1023.4 - 0.2
26/08:30pm 11.5 7.1 5.0 64 3.0 SSW 17 22 9 12 1023.4 - 0.2
26/08:15pm 12.2 7.9 5.3 62 3.2 SSW 17 22 9 12 1023.4 - 0.2
26/08:00pm 12.0 8.1 5.3 63 3.1 SW 15 19 8 10 1023.3 - 0.2
26/07:45pm 12.2 8.6 5.1 62 3.3 SW 13 19 7 10 1023.2 - 0.2
26/07:30pm 12.8 8.9 5.2 60 3.6 WSW 15 19 8 10 1023.0 - 0.2
26/07:15pm 13.2 8.9 5.3 58 3.7 WSW 17 20 9 11 1022.9 - 0.2
26/07:00pm 13.6 9.0 5.4 57 3.9 SW 19 22 10 12 1022.8 - 0.2
26/06:45pm 13.9 9.1 5.4 56 4.0 SW 20 24 11 13 1022.6 - 0.2
26/06:30pm 14.2 9.3 5.3 55 4.2 SW 20 24 11 13 1022.4 - 0.2
26/06:15pm 14.3 9.5 5.5 55 4.2 WSW 20 26 11 14 1022.2 - 0.2
26/06:00pm 14.2 10.0 5.9 57 4.0 WSW 17 22 9 12 1022.0 - 0.2
26/05:45pm 14.3 11.0 6.2 58 3.9 SW 13 19 7 10 1021.8 - 0.2
26/05:30pm 14.9 11.8 7.3 60 3.8 SW 13 19 7 10 1021.6 - 0.2
26/05:15pm 15.3 13.1 8.0 61 3.7 WSW 9 15 5 8 1021.5 - 0.2
26/05:00pm 16.1 13.6 8.1 59 4.1 W 11 19 6 10 1021.3 - 0.2
26/04:45pm 16.9 15.3 8.6 58 4.3 W 7 11 4 6 1021.2 - 0.2
26/04:30pm 17.4 15.9 9.1 58 4.3 WNW 7 11 4 6 1021.0 - 0.2
26/04:15pm 17.2 15.6 8.9 58 4.3 WNW 7 13 4 7 1020.9 - 0.2
26/04:00pm 17.3 15.3 8.6 56 4.5 WNW 9 13 5 7 1020.8 - 0.2
26/03:45pm 17.2 14.7 8.2 55 4.6 W 11 15 6 8 1020.7 - 0.2
26/03:30pm 17.2 14.7 8.4 56 4.5 W 11 19 6 10 1020.7 - 0.2
26/03:15pm 17.1 15.1 8.7 57 4.4 W 9 15 5 8 1020.6 - 0.2
26/03:00pm 17.0 15.3 9.7 62 3.9 W 9 15 5 8 1020.7 - 0.2
26/02:45pm 16.5 14.2 10.5 67 3.2 W 13 19 7 10 1020.8 - 0.2
26/02:30pm 15.8 12.6 10.0 68 3.1 W 17 22 9 12 1020.9 - 0.2
26/02:15pm 16.4 14.2 10.8 69 3.0 W 13 19 7 10 1020.8 - 0.2
26/02:00pm 16.9 15.6 11.3 69 3.0 WSW 9 17 5 9 1020.6 - 0.2
26/01:45pm 16.3 15.0 11.4 73 2.7 W 9 13 5 7 1020.6 - 0.2
26/01:30pm 15.8 14.6 11.6 76 2.3 W 9 19 5 10 1021.0 - 0.2
26/01:15pm 15.0 13.8 11.7 80 1.8 W 9 15 5 8 1021.4 - 0.2
26/01:00pm 14.2 12.7 11.8 85 1.3 W 11 17 6 9 1021.7 - 0.2
26/12:45pm 13.3 11.7 11.6 89 0.9 WNW 11 17 6 9 1022.2 - 0.2
26/12:30pm 12.4 10.2 10.8 90 0.8 W 13 19 7 10 1022.8 - 0.2
26/12:15pm 12.1 9.8 10.6 90 0.8 W 13 19 7 10 1023.2 - 0.2

Other Formats:

Comma delimited format used in spreadsheet applications
http://www.bom.gov.au/fwo/IDN60801/IDN60801.95757.axf

JavaScript Object Notation format (JSON) in row-major order
http://www.bom.gov.au/fwo/IDN60801/IDN60801.95757.json